Time;durP1;ratioP1;P1;durP2;ratioP2;P2;SDS_P1;SDS_P2;PMS_P1;PMS_P2;Temp;Humidity;BMP_temperature;BMP_pressure;BME280_temperature;BME280_humidity;BME280_pressure;Samples;Min_cycle;Max_cycle;Signal;HPM_P1;HPM_P2
2023/12/10 00:01:02;;;;;;;17.20;4.03;;;9.70;99.90;;;;;;4981086;28;20047;-93
2023/12/10 00:03:28;;;;;;;16.95;4.18;;;9.70;99.90;;;;;;4990225;28;20038;-93
2023/12/10 00:05:54;;;;;;;16.08;3.13;;;9.70;99.90;;;;;;4972331;28;20067;-93
2023/12/10 00:08:20;;;;;;;16.23;3.85;;;9.80;99.90;;;;;;5013189;28;20053;-94
2023/12/10 00:10:46;;;;;;;19.15;4.30;;;9.70;99.90;;;;;;5011383;28;20034;-95
2023/12/10 00:13:12;;;;;;;14.10;4.05;;;9.70;99.90;;;;;;5002647;28;20070;-92
2023/12/10 00:15:38;;;;;;;20.00;4.47;;;9.80;99.90;;;;;;4970933;28;20019;-92
2023/12/10 00:18:05;;;;;;;23.42;4.15;;;9.70;99.90;;;;;;4997028;28;20011;-92
2023/12/10 00:20:34;;;;;;;18.65;3.83;;;9.80;99.90;;;;;;4972910;28;20026;-95
2023/12/10 00:23:00;;;;;;;20.45;3.95;;;9.80;99.90;;;;;;4999009;28;20023;-95
2023/12/10 00:25:26;;;;;;;17.23;4.18;;;9.60;99.90;;;;;;5003847;28;20041;-92
2023/12/10 00:27:52;;;;;;;17.40;3.42;;;9.60;99.90;;;;;;4972849;28;20028;-94
2023/12/10 00:30:18;;;;;;;20.42;3.35;;;9.60;99.90;;;;;;4988452;28;20023;-93
2023/12/10 00:32:44;;;;;;;20.23;4.38;;;9.60;99.90;;;;;;4987838;28;20041;-95
2023/12/10 00:35:11;;;;;;;17.48;4.32;;;9.70;99.90;;;;;;5006029;28;20038;-94
2023/12/10 00:37:37;;;;;;;24.60;4.47;;;9.70;99.90;;;;;;4991687;28;20030;-92
2023/12/10 00:40:06;;;;;;;16.38;3.88;;;9.70;99.90;;;;;;4998196;28;20042;-92
2023/12/10 00:42:32;;;;;;;23.08;3.95;;;9.70;99.90;;;;;;4972773;28;20034;-94
2023/12/10 00:44:58;;;;;;;21.10;4.10;;;9.70;99.90;;;;;;4997341;28;20019;-94
2023/12/10 00:47:23;;;;;;;20.15;4.22;;;9.70;99.90;;;;;;4991643;28;20065;-94
2023/12/10 00:49:49;;;;;;;26.52;5.55;;;9.60;99.90;;;;;;5003141;28;20029;-94
2023/12/10 00:52:15;;;;;;;24.58;4.80;;;9.60;99.90;;;;;;4983694;28;20031;-93
2023/12/10 00:54:41;;;;;;;20.42;4.93;;;9.70;99.90;;;;;;4979470;28;20130;-91
2023/12/10 00:57:07;;;;;;;23.40;6.00;;;9.70;99.90;;;;;;4966364;28;20035;-90
2023/12/10 00:59:33;;;;;;;23.73;5.57;;;9.70;99.90;;;;;;4963704;28;20027;-93
2023/12/10 01:01:59;;;;;;;27.00;4.45;;;9.60;99.90;;;;;;4987239;28;20042;-91
2023/12/10 01:04:27;;;;;;;24.13;4.85;;;9.60;99.90;;;;;;5000903;28;20054;-93
2023/12/10 01:06:54;;;;;;;30.15;5.38;;;9.60;99.90;;;;;;4983677;28;20030;-92
2023/12/10 01:09:20;;;;;;;18.45;4.70;;;9.60;99.90;;;;;;4978492;28;20019;-93
2023/12/10 01:11:46;;;;;;;21.15;4.45;;;9.70;99.90;;;;;;4983904;28;20011;-95
2023/12/10 01:14:11;;;;;;;19.75;4.57;;;9.60;99.90;;;;;;5003805;28;20023;-91
2023/12/10 01:16:37;;;;;;;16.83;4.03;;;9.70;99.90;;;;;;4992430;28;20041;-95
2023/12/10 01:19:04;;;;;;;30.30;7.32;;;9.70;99.90;;;;;;4999988;28;20041;-95
2023/12/10 01:21:30;;;;;;;26.67;5.80;;;9.60;99.90;;;;;;5004316;28;20038;-91
2023/12/10 01:23:56;;;;;;;22.75;3.78;;;9.60;99.90;;;;;;5011298;28;20030;-91
2023/12/10 01:26:24;;;;;;;22.08;7.32;;;9.60;99.90;;;;;;5010609;28;20086;-93
2023/12/10 01:28:51;;;;;;;23.42;6.22;;;9.60;99.90;;;;;;4969661;28;20042;-92
2023/12/10 01:31:17;;;;;;;23.98;6.53;;;9.60;98.90;;;;;;4960298;28;20395;-93
2023/12/10 01:33:43;;;;;;;27.17;5.45;;;9.60;99.90;;;;;;5000705;28;20495;-93
2023/12/10 01:36:22;;;;;;;23.80;3.92;;;9.50;99.90;;;;;;4970099;28;20089;-91
2023/12/10 01:38:48;;;;;;;16.33;3.10;;;9.00;99.90;;;;;;4972217;28;20039;-92
2023/12/10 01:41:14;;;;;;;10.65;1.20;;;8.50;99.90;;;;;;4991385;28;20041;-92
2023/12/10 01:43:39;;;;;;;9.65;2.47;;;8.20;99.90;;;;;;4982917;28;20044;-93
2023/12/10 01:46:05;;;;;;;6.80;1.88;;;7.90;99.90;;;;;;4993913;28;20026;-92
2023/12/10 01:48:32;;;;;;;9.60;2.28;;;7.90;99.90;;;;;;4996537;28;20066;-93
2023/12/10 01:50:58;;;;;;;9.10;1.52;;;7.80;99.90;;;;;;4973891;28;20022;-93
2023/12/10 01:53:23;;;;;;;10.10;1.98;;;7.90;99.90;;;;;;4990869;28;20033;-93
2023/12/10 01:55:49;;;;;;;11.63;2.47;;;8.00;99.90;;;;;;4978203;28;20027;-93
2023/12/10 01:58:15;;;;;;;10.55;3.03;;;8.00;99.90;;;;;;4978186;28;20034;-93
2023/12/10 02:00:41;;;;;;;16.48;2.60;;;7.90;99.90;;;;;;4998295;28;20057;-94
2023/12/10 02:03:07;;;;;;;19.23;2.78;;;7.90;99.90;;;;;;4991406;28;20027;-91
2023/12/10 02:05:32;;;;;;;16.17;2.28;;;7.90;99.90;;;;;;4999424;28;20071;-93
2023/12/10 02:07:58;;;;;;;14.80;3.33;;;7.90;99.90;;;;;;4998471;28;20034;-95
2023/12/10 02:10:24;;;;;;;13.38;3.78;;;7.90;99.90;;;;;;4997038;28;20026;-94
2023/12/10 02:12:53;;;;;;;18.73;3.28;;;7.90;99.90;;;;;;4997147;28;20047;-93
2023/12/10 02:15:19;;;;;;;27.45;5.43;;;7.90;99.90;;;;;;5000657;28;20026;-93
2023/12/10 02:17:46;;;;;;;16.17;3.38;;;7.90;99.90;;;;;;5003716;28;20018;-94
2023/12/10 02:20:12;;;;;;;15.57;3.55;;;8.00;99.90;;;;;;5004194;28;20023;-95
2023/12/10 02:23:04;;;;;;;13.57;3.88;;;8.00;99.90;;;;;;4993803;28;20027;-94
2023/12/10 02:25:34;;;;;;;15.07;3.47;;;8.10;99.90;;;;;;5011118;28;20027;-93
2023/12/10 02:28:04;;;;;;;15.40;3.70;;;8.10;99.90;;;;;;4996722;28;20085;-96
2023/12/10 02:30:30;;;;;;;14.80;3.92;;;8.10;99.90;;;;;;4973673;28;20086;-94
2023/12/10 02:32:57;;;;;;;15.90;3.88;;;8.00;99.90;;;;;;4994943;28;20007;-94
2023/12/10 02:35:22;;;;;;;22.92;3.55;;;8.00;99.90;;;;;;4993742;28;20038;-94
2023/12/10 02:37:49;;;;;;;23.38;4.57;;;8.00;99.90;;;;;;4977231;28;20030;-93
2023/12/10 02:40:16;;;;;;;16.90;4.25;;;8.00;99.90;;;;;;5003827;28;20042;-93
2023/12/10 02:42:43;;;;;;;;;;;8.10;99.90;;;;;;5011853;28;20037;-94
2023/12/10 02:45:09;;;;;;;20.70;4.93;;;8.10;99.90;;;;;;5001313;28;19910;-93
2023/12/10 02:47:36;;;;;;;18.30;4.30;;;8.10;99.90;;;;;;4993282;28;20037;-92
2023/12/10 02:50:02;;;;;;;19.50;3.72;;;8.20;99.90;;;;;;4999695;28;20064;-94
2023/12/10 02:52:27;;;;;;;17.42;4.68;;;8.20;99.90;;;;;;4990952;28;20085;-95
2023/12/10 02:54:53;;;;;;;30.42;4.97;;;8.30;99.90;;;;;;4998764;28;20094;-92
2023/12/10 02:57:19;;;;;;;19.75;3.17;;;8.40;99.90;;;;;;5000764;28;20022;-93
2023/12/10 02:59:44;;;;;;;23.23;4.53;;;8.40;99.90;;;;;;4990667;28;20042;-95
2023/12/10 03:02:10;;;;;;;23.38;5.97;;;8.40;99.90;;;;;;4992819;28;20055;-94
2023/12/10 03:04:36;;;;;;;16.48;3.72;;;8.40;99.90;;;;;;5009372;28;20049;-91
2023/12/10 03:07:01;;;;;;;15.63;3.75;;;8.40;99.90;;;;;;5010376;28;20033;-93
2023/12/10 03:09:27;;;;;;;19.95;4.10;;;8.50;99.90;;;;;;4978135;28;20022;-92
2023/12/10 03:11:53;;;;;;;25.55;5.30;;;8.60;99.90;;;;;;4989163;28;20023;-93
2023/12/10 03:14:18;;;;;;;19.80;5.78;;;8.60;99.90;;;;;;4970225;28;20397;-92
2023/12/10 03:16:47;;;;;;;22.33;3.20;;;8.60;99.90;;;;;;4990509;28;20029;-95
2023/12/10 03:19:12;;;;;;;15.43;2.78;;;8.60;99.90;;;;;;4993031;28;20030;-92
2023/12/10 03:21:38;;;;;;;16.58;6.35;;;8.60;99.90;;;;;;4994045;28;20030;-94
2023/12/10 03:24:04;;;;;;;17.98;3.58;;;8.60;99.90;;;;;;5000980;28;20038;-95
2023/12/10 03:26:29;;;;;;;16.13;3.92;;;8.70;99.90;;;;;;4978107;28;20030;-94
2023/12/10 03:28:55;;;;;;;17.27;3.25;;;8.60;99.90;;;;;;5009441;28;20104;-94
2023/12/10 03:31:21;;;;;;;16.30;4.15;;;8.70;99.90;;;;;;4993693;28;20015;-93
2023/12/10 03:33:46;;;;;;;15.52;4.65;;;8.70;99.90;;;;;;5008290;28;20031;-93
2023/12/10 03:36:14;;;;;;;16.13;2.33;;;8.70;99.90;;;;;;5009557;28;20026;-92
2023/12/10 03:38:40;;;;;;;;;;;8.70;99.90;;;;;;4986714;28;20054;-93
2023/12/10 03:41:06;;;;;;;17.25;4.03;;;8.70;99.90;;;;;;4982726;28;19898;-95
2023/12/10 03:43:32;;;;;;;12.90;4.28;;;8.70;99.90;;;;;;4991866;28;20034;-92
2023/12/10 03:45:57;;;;;;;14.90;3.95;;;8.70;99.90;;;;;;4992491;28;20022;-94
2023/12/10 03:48:23;;;;;;;18.88;3.63;;;8.70;99.90;;;;;;5010208;28;20034;-95
2023/12/10 03:50:51;;;;;;;14.20;2.67;;;8.80;99.70;;;;;;5001585;28;20045;-94
2023/12/10 03:53:17;;;;;;;17.80;3.45;;;8.90;99.50;;;;;;5002384;28;20038;-94
2023/12/10 03:55:45;;;;;;;23.63;3.40;;;8.80;99.90;;;;;;4999299;28;20038;-95
2023/12/10 03:58:13;;;;;;;17.77;3.78;;;8.80;99.20;;;;;;4995860;28;20015;-95
2023/12/10 04:00:41;;;;;;;17.80;3.53;;;8.90;97.40;;;;;;4994457;28;20054;-93
2023/12/10 04:03:07;;;;;;;14.38;3.08;;;8.90;97.10;;;;;;4992857;28;20026;-94
2023/12/10 04:05:33;;;;;;;17.58;3.13;;;8.90;97.80;;;;;;4993258;28;20046;-93
2023/12/10 04:07:59;;;;;;;15.73;4.00;;;8.90;98.70;;;;;;5001398;28;20043;-96
2023/12/10 04:10:25;;;;;;;13.95;3.80;;;8.90;96.00;;;;;;4976662;28;20023;-93
2023/12/10 04:12:51;;;;;;;10.07;3.65;;;9.00;95.70;;;;;;4973628;28;20022;-93
2023/12/10 04:15:21;;;;;;;18.65;3.63;;;8.90;96.10;;;;;;5006737;28;20031;-93
2023/12/10 04:17:48;;;;;;;18.23;3.47;;;9.00;96.90;;;;;;4976787;28;20030;-94
2023/12/10 04:20:14;;;;;;;15.82;4.20;;;8.90;97.20;;;;;;4974466;28;20039;-94
2023/12/10 04:22:40;;;;;;;16.70;3.58;;;8.90;97.40;;;;;;4970637;28;20030;-93
2023/12/10 04:25:06;;;;;;;15.77;2.58;;;8.80;97.00;;;;;;4978393;28;20034;-92
2023/12/10 04:27:32;;;;;;;15.48;3.13;;;8.90;97.20;;;;;;4995725;28;20081;-92
2023/12/10 04:29:59;;;;;;;18.17;3.10;;;8.90;96.80;;;;;;5002457;28;20023;-93
2023/12/10 04:32:24;;;;;;;12.93;3.00;;;8.80;96.50;;;;;;4990295;28;20097;-94
2023/12/10 04:34:51;;;;;;;14.40;2.70;;;8.80;95.80;;;;;;4994718;28;20053;-92
2023/12/10 04:37:17;;;;;;;19.13;3.47;;;8.80;95.30;;;;;;5002844;28;20122;-94
2023/12/10 04:39:47;;;;;;;20.48;3.33;;;8.80;97.00;;;;;;4984407;28;20031;-94
2023/12/10 04:42:13;;;;;;;12.20;2.72;;;8.80;96.30;;;;;;4993329;28;20044;-94
2023/12/10 04:44:39;;;;;;;14.30;3.05;;;8.90;95.20;;;;;;4992921;28;20061;-93
2023/12/10 04:47:05;;;;;;;12.65;2.85;;;8.80;95.60;;;;;;4977343;28;20031;-94
2023/12/10 04:49:37;;;;;;;14.82;2.75;;;8.80;96.10;;;;;;4959507;28;20529;-93
2023/12/10 04:52:03;;;;;;;18.70;2.05;;;8.80;96.70;;;;;;4973672;28;20034;-94
2023/12/10 04:54:32;;;;;;;19.23;4.15;;;8.70;96.30;;;;;;5001839;28;20036;-93
2023/12/10 04:56:57;;;;;;;20.50;3.80;;;8.80;94.80;;;;;;4995954;28;20033;-92
2023/12/10 04:59:26;;;;;;;12.18;2.22;;;8.80;95.00;;;;;;4991105;28;20054;-92
2023/12/10 05:01:58;;;;;;;16.50;3.25;;;8.80;95.10;;;;;;4996076;28;20178;-93
2023/12/10 05:04:27;;;;;;;13.05;6.50;;;8.90;94.10;;;;;;5000428;28;20408;-94
2023/12/10 05:06:56;;;;;;;20.05;2.65;;;8.80;94.90;;;;;;5010538;28;20034;-93
2023/12/10 05:09:27;;;;;;;13.80;2.95;;;8.80;94.20;;;;;;4973999;28;20547;-91
2023/12/10 05:11:54;;;;;;;13.25;3.65;;;8.80;93.70;;;;;;4969920;29;20027;-94
2023/12/10 05:14:20;;;;;;;17.50;3.00;;;8.80;94.10;;;;;;5002543;28;20030;-93
2023/12/10 05:16:46;;;;;;;16.65;2.95;;;8.80;94.00;;;;;;4994917;28;20086;-94
2023/12/10 05:19:12;;;;;;;13.25;3.05;;;8.90;94.20;;;;;;4999763;28;20340;-93
2023/12/10 05:21:38;;;;;;;14.43;2.13;;;8.80;94.10;;;;;;4971126;28;20050;-95
2023/12/10 05:24:06;;;;;;;17.38;3.10;;;8.80;93.90;;;;;;4989039;28;20049;-93
2023/12/10 05:26:32;;;;;;;15.07;3.33;;;8.80;94.00;;;;;;4982609;28;20800;-94
2023/12/10 05:28:58;;;;;;;13.52;3.22;;;8.90;94.30;;;;;;4971510;28;20027;-94
2023/12/10 05:31:26;;;;;;;9.18;2.75;;;8.80;93.60;;;;;;4997566;28;20083;-94
2023/12/10 05:33:53;;;;;;;14.02;2.63;;;8.90;93.10;;;;;;4989029;28;20027;-91
2023/12/10 05:36:22;;;;;;;13.18;1.95;;;8.80;93.10;;;;;;4971140;28;20027;-94
2023/12/10 05:39:00;;;;;;;20.00;3.55;;;8.90;93.40;;;;;;4979239;28;20093;-94
2023/12/10 05:41:26;;;;;;;15.13;2.83;;;8.80;93.00;;;;;;4989244;28;20042;-94
2023/12/10 05:43:54;;;;;;;9.30;3.10;;;8.90;93.00;;;;;;4978767;28;20035;-94
2023/12/10 05:46:20;;;;;;;9.32;2.75;;;8.90;92.50;;;;;;4979120;28;20529;-92
2023/12/10 05:48:46;;;;;;;11.23;2.22;;;8.90;92.60;;;;;;4975691;28;20074;-93
2023/12/10 05:51:15;;;;;;;22.08;4.50;;;8.90;92.10;;;;;;4971109;28;20054;-94
2023/12/10 05:53:45;;;;;;;16.35;2.70;;;8.90;92.40;;;;;;4993980;28;20035;-93
2023/12/10 05:56:14;;;;;;;15.38;3.38;;;8.90;91.90;;;;;;4971771;28;20050;-93
2023/12/10 05:58:42;;;;;;;18.98;3.25;;;9.00;92.70;;;;;;5002073;28;20026;-92
2023/12/10 06:01:11;;;;;;;13.65;2.85;;;9.00;91.40;;;;;;4991372;28;20094;-95
2023/12/10 06:03:40;;;;;;;18.63;4.25;;;9.00;92.70;;;;;;4997070;28;20034;-94
2023/12/10 06:06:07;;;;;;;11.30;2.80;;;9.00;91.40;;;;;;4990222;28;20035;-94
2023/12/10 06:08:37;;;;;;;9.02;3.63;;;9.00;91.40;;;;;;4971392;28;20038;-91
2023/12/10 06:11:03;;;;;;;13.90;3.40;;;9.10;89.60;;;;;;4971454;28;20066;-94
2023/12/10 06:13:39;;;;;;;17.33;2.80;;;9.10;90.20;;;;;;4986383;28;20030;-93
2023/12/10 06:16:15;;;;;;;13.15;2.20;;;9.20;88.70;;;;;;4982594;28;20047;-95
2023/12/10 06:19:01;;;;;;;15.25;2.38;;;9.10;89.30;;;;;;4972212;28;20090;-93
2023/12/10 06:21:30;;;;;;;16.60;3.15;;;9.10;89.20;;;;;;4968331;28;20039;-93
2023/12/10 06:23:56;;;;;;;21.80;3.65;;;9.10;90.70;;;;;;4968263;28;20034;-94
2023/12/10 06:26:22;;;;;;;11.23;2.65;;;9.00;91.70;;;;;;4994717;28;20025;-92
2023/12/10 06:28:51;;;;;;;19.52;4.32;;;8.90;91.60;;;;;;4969386;28;20050;-96
2023/12/10 06:31:20;;;;;;;14.75;3.00;;;8.90;92.60;;;;;;4979601;28;20727;-92
2023/12/10 06:33:46;;;;;;;14.27;2.58;;;8.80;93.40;;;;;;4977643;28;20031;-92
2023/12/10 06:36:14;;;;;;;19.13;4.20;;;8.70;93.70;;;;;;4991453;28;20096;-93
2023/12/10 06:38:40;;;;;;;10.13;2.38;;;8.80;92.70;;;;;;5002653;28;20034;-93
2023/12/10 06:41:11;;;;;;;14.73;4.68;;;8.80;92.00;;;;;;4969008;28;20425;-94
2023/12/10 06:43:41;;;;;;;13.60;2.65;;;8.90;92.00;;;;;;4958647;28;20141;-94
2023/12/10 06:46:13;;;;;;;14.85;3.00;;;8.90;92.30;;;;;;4977104;28;20022;-92
2023/12/10 06:48:41;;;;;;;11.88;2.88;;;8.90;90.60;;;;;;4995905;28;20026;-93
2023/12/10 06:51:07;;;;;;;10.00;2.85;;;8.90;92.00;;;;;;4974917;28;20027;-94
2023/12/10 06:53:33;;;;;;;17.77;2.45;;;8.90;91.60;;;;;;4968316;28;20046;-93
2023/12/10 06:56:02;;;;;;;14.60;2.47;;;8.90;91.80;;;;;;4981509;28;20027;-93
2023/12/10 06:58:28;;;;;;;15.55;3.83;;;8.80;91.20;;;;;;4986054;28;20567;-96
2023/12/10 07:00:56;;;;;;;15.13;3.63;;;8.90;91.90;;;;;;4993503;28;20034;-94
2023/12/10 07:03:22;;;;;;;14.45;3.33;;;8.90;91.60;;;;;;4977970;28;20536;-93
2023/12/10 07:05:48;;;;;;;12.35;2.28;;;8.90;92.00;;;;;;4986247;28;20022;-93
2023/12/10 07:08:14;;;;;;;20.17;2.88;;;8.90;92.00;;;;;;4994647;28;20025;-95
2023/12/10 07:10:41;;;;;;;19.10;3.05;;;8.90;92.90;;;;;;4991630;28;20063;-94
2023/12/10 07:13:09;;;;;;;12.57;2.65;;;8.80;92.50;;;;;;4974862;28;20511;-94
2023/12/10 07:15:36;;;;;;;17.80;2.47;;;8.80;92.10;;;;;;4952392;28;20027;-94
2023/12/10 07:18:02;;;;;;;16.55;2.67;;;8.80;91.30;;;;;;4981783;28;20026;-94
2023/12/10 07:20:27;;;;;;;11.60;2.95;;;8.80;92.40;;;;;;4976977;28;20053;-92
2023/12/10 07:22:53;;;;;;;16.85;2.85;;;8.80;92.70;;;;;;4973097;28;20022;-93
2023/12/10 07:25:20;;;;;;;12.82;3.40;;;8.80;92.50;;;;;;4983366;28;20038;-91
2023/12/10 07:27:47;;;;;;;13.68;2.33;;;8.80;93.40;;;;;;4970013;28;20030;-94
2023/12/10 07:30:13;;;;;;;10.57;2.55;;;8.80;93.50;;;;;;4971961;28;20025;-93
2023/12/10 07:32:38;;;;;;;14.20;2.97;;;8.70;94.10;;;;;;4971172;28;20030;-93
2023/12/10 07:35:04;;;;;;;18.45;2.97;;;8.70;94.70;;;;;;4999195;28;20128;-90
2023/12/10 07:37:33;;;;;;;17.08;3.00;;;8.70;94.60;;;;;;4963986;28;20051;-93
2023/12/10 07:39:58;;;;;;;13.93;3.15;;;8.70;94.80;;;;;;4989703;28;20031;-94
2023/12/10 07:42:25;;;;;;;15.70;3.45;;;8.60;95.00;;;;;;5003114;28;20041;-95
2023/12/10 07:44:51;;;;;;;16.13;4.03;;;8.60;95.40;;;;;;4991721;28;20023;-94
2023/12/10 07:47:16;;;;;;;12.65;4.07;;;8.70;95.50;;;;;;4974875;28;20426;-93
2023/12/10 07:49:42;;;;;;;10.75;3.83;;;8.70;95.20;;;;;;4991902;28;20023;-93
2023/12/10 07:52:08;;;;;;;13.38;2.53;;;8.70;95.90;;;;;;5001892;28;20023;-92
2023/12/10 07:54:33;;;;;;;16.88;3.10;;;8.60;95.60;;;;;;4988292;28;20037;-92
2023/12/10 07:56:59;;;;;;;12.43;3.05;;;8.70;95.50;;;;;;4985604;28;20114;-93
2023/12/10 07:59:25;;;;;;;17.52;3.78;;;8.80;94.50;;;;;;4986871;28;20157;-94
2023/12/10 08:01:51;;;;;;;23.55;3.20;;;8.80;94.80;;;;;;5002768;28;20030;-92
2023/12/10 08:04:16;;;;;;;18.95;4.18;;;8.80;95.00;;;;;;4998480;28;20065;-94
2023/12/10 08:06:42;;;;;;;15.55;2.95;;;8.80;94.90;;;;;;5005994;28;20033;-92
2023/12/10 08:09:08;;;;;;;16.80;4.03;;;8.80;93.80;;;;;;4976226;28;20023;-93
2023/12/10 08:11:34;;;;;;;12.32;2.83;;;8.90;93.60;;;;;;5000817;28;20030;-93
2023/12/10 08:14:00;;;;;;;18.15;5.05;;;8.90;93.60;;;;;;5000871;28;20054;-91
2023/12/10 08:16:26;;;;;;;17.05;3.78;;;8.90;94.80;;;;;;4989645;28;20039;-93
2023/12/10 08:18:52;;;;;;;13.80;3.28;;;9.00;93.50;;;;;;4988189;28;20011;-92
2023/12/10 08:21:18;;;;;;;11.95;2.85;;;9.00;94.20;;;;;;4974054;28;20023;-94
2023/12/10 08:23:43;;;;;;;15.00;3.25;;;8.90;94.60;;;;;;4975391;28;20033;-94
2023/12/10 08:26:12;;;;;;;19.05;4.00;;;8.90;94.50;;;;;;4989981;28;20403;-95
2023/12/10 08:28:38;;;;;;;19.38;4.53;;;8.90;95.00;;;;;;5005854;28;20022;-94
2023/12/10 08:31:04;;;;;;;17.92;2.25;;;9.00;94.50;;;;;;4998364;28;20105;-94
2023/12/10 08:33:33;;;;;;;11.77;3.47;;;9.00;95.00;;;;;;4999484;28;20034;-92
2023/12/10 08:35:59;;;;;;;13.88;2.72;;;9.00;93.60;;;;;;4988971;28;20042;-93
2023/12/10 08:38:25;;;;;;;16.10;3.05;;;9.00;94.70;;;;;;4969798;28;20058;-91
2023/12/10 08:40:50;;;;;;;14.80;2.85;;;9.00;95.60;;;;;;4987453;28;20027;-93
2023/12/10 08:43:17;;;;;;;15.77;3.53;;;9.00;93.70;;;;;;4970024;28;20034;-94
2023/12/10 08:45:43;;;;;;;15.98;2.47;;;9.00;94.40;;;;;;4990445;28;20085;-93
2023/12/10 08:48:09;;;;;;;19.67;4.70;;;9.10;93.10;;;;;;4986194;28;20023;-93
2023/12/10 08:50:35;;;;;;;16.08;3.08;;;9.10;93.10;;;;;;4998562;28;20023;-92
2023/12/10 08:53:01;;;;;;;16.33;4.95;;;9.10;92.60;;;;;;4982931;28;20031;-92
2023/12/10 08:55:26;;;;;;;18.48;3.22;;;9.10;94.20;;;;;;4967863;28;20038;-92
2023/12/10 08:57:52;;;;;;;16.25;3.85;;;9.10;93.90;;;;;;4966002;28;20023;-93
2023/12/10 09:00:18;;;;;;;16.88;3.85;;;9.10;93.40;;;;;;4981626;28;20034;-91
2023/12/10 09:02:43;;;;;;;17.02;4.45;;;9.10;93.70;;;;;;4973711;28;20027;-91
2023/12/10 09:05:09;;;;;;;12.65;2.47;;;9.20;93.70;;;;;;4978294;28;20031;-91
2023/12/10 09:07:35;;;;;;;18.48;4.75;;;9.20;93.40;;;;;;4973214;28;20081;-94
2023/12/10 09:10:01;;;;;;;13.75;2.85;;;9.20;93.00;;;;;;4981214;28;20117;-92
2023/12/10 09:12:27;;;;;;;15.60;2.95;;;9.30;92.00;;;;;;4974038;28;20022;-92
2023/12/10 09:14:53;;;;;;;13.55;2.83;;;9.30;92.50;;;;;;4980070;28;20524;-93
2023/12/10 09:17:20;;;;;;;15.38;3.42;;;9.30;92.80;;;;;;4974064;28;20030;-93
2023/12/10 09:19:45;;;;;;;19.98;3.58;;;9.30;91.30;;;;;;4982682;28;20628;-93
2023/12/10 09:22:11;;;;;;;15.15;4.05;;;9.30;92.10;;;;;;4985342;28;20030;-93
2023/12/10 09:24:37;;;;;;;8.48;2.05;;;9.30;92.40;;;;;;4971369;28;20019;-94
2023/12/10 09:27:03;;;;;;;14.07;2.85;;;9.30;91.70;;;;;;4986153;28;20014;-91
2023/12/10 09:29:38;;;;;;;15.32;3.03;;;9.30;92.30;;;;;;5001489;28;20124;-94
2023/12/10 09:32:04;;;;;;;;;;;9.40;91.30;;;;;;4977101;28;20035;-91
2023/12/10 09:34:30;;;;;;;14.10;3.85;;;9.40;91.30;;;;;;4982277;28;19905;-94
2023/12/10 09:36:56;;;;;;;14.55;3.35;;;9.40;91.40;;;;;;4995767;28;20023;-93
2023/12/10 09:39:21;;;;;;;14.88;2.60;;;9.50;91.20;;;;;;4985300;28;20065;-95
2023/12/10 09:41:48;;;;;;;14.07;2.78;;;9.60;90.90;;;;;;4990663;28;20133;-94
2023/12/10 09:44:16;;;;;;;13.15;2.88;;;9.60;90.80;;;;;;5005047;28;20026;-93
2023/12/10 09:46:42;;;;;;;10.00;2.78;;;9.60;90.50;;;;;;5002578;28;20025;-94
2023/12/10 09:49:08;;;;;;;18.33;4.43;;;9.70;91.20;;;;;;4986600;28;20046;-93
2023/12/10 09:51:37;;;;;;;16.27;4.85;;;9.70;88.60;;;;;;4988073;28;20030;-93
2023/12/10 09:54:03;;;;;;;12.15;3.25;;;9.70;89.20;;;;;;4984614;28;20038;-92
2023/12/10 09:56:28;;;;;;;18.45;2.47;;;9.70;89.70;;;;;;4990683;28;20019;-92
2023/12/10 09:58:54;;;;;;;15.98;2.83;;;9.70;90.40;;;;;;4972712;28;20053;-93
2023/12/10 10:01:20;;;;;;;14.70;3.25;;;9.60;89.80;;;;;;4984728;28;20050;-94
2023/12/10 10:03:45;;;;;;;14.52;2.50;;;9.60;90.70;;;;;;4985513;28;20103;-94
2023/12/10 10:06:11;;;;;;;11.93;3.38;;;9.60;89.10;;;;;;4968748;28;20037;-94
2023/12/10 10:08:37;;;;;;;15.35;3.85;;;9.60;88.30;;;;;;4975273;28;20092;-93
2023/12/10 10:11:03;;;;;;;11.48;3.88;;;9.60;89.50;;;;;;4987801;28;20026;-93
2023/12/10 10:13:29;;;;;;;17.67;2.70;;;9.60;89.80;;;;;;4979154;28;20026;-94
2023/12/10 10:15:55;;;;;;;13.50;3.47;;;9.60;90.30;;;;;;4986892;28;20085;-92
2023/12/10 10:18:21;;;;;;;11.43;2.55;;;9.60;90.30;;;;;;4979986;28;20026;-92
2023/12/10 10:20:47;;;;;;;14.10;2.65;;;9.60;90.80;;;;;;4999415;28;20019;-93
2023/12/10 10:23:16;;;;;;;14.98;5.30;;;9.60;90.50;;;;;;4977678;28;20396;-93
2023/12/10 10:25:42;;;;;;;14.98;3.00;;;9.60;90.10;;;;;;4989002;28;20082;-93
2023/12/10 10:28:09;;;;;;;13.98;2.53;;;9.60;89.10;;;;;;4979540;28;20026;-95
2023/12/10 10:30:34;;;;;;;10.95;2.13;;;9.60;89.60;;;;;;4963927;28;20125;-92
2023/12/10 10:33:00;;;;;;;17.00;3.90;;;9.60;89.40;;;;;;4989574;28;20031;-93
2023/12/10 10:35:27;;;;;;;14.07;2.53;;;9.70;89.20;;;;;;4986622;28;20034;-93
2023/12/10 10:37:53;;;;;;;11.50;3.53;;;9.70;90.00;;;;;;4989374;28;20090;-95
2023/12/10 10:40:20;;;;;;;14.00;3.55;;;9.80;88.10;;;;;;5003051;28;20042;-92
2023/12/10 10:42:46;;;;;;;15.82;4.00;;;9.80;89.50;;;;;;4989667;28;20038;-92
2023/12/10 10:45:11;;;;;;;20.48;3.92;;;9.80;92.50;;;;;;4993912;28;20037;-95
2023/12/10 10:47:37;;;;;;;17.27;3.33;;;9.70;95.20;;;;;;4990826;28;20061;-93
2023/12/10 10:50:09;;;;;;;13.45;2.70;;;9.70;95.60;;;;;;4996679;28;20029;-94
2023/12/10 10:52:36;;;;;;;9.02;1.95;;;9.60;95.70;;;;;;4970607;28;20604;-94
2023/12/10 10:55:04;;;;;;;16.08;2.90;;;9.50;94.70;;;;;;4995519;28;20094;-94
2023/12/10 10:57:35;;;;;;;14.82;2.95;;;9.60;92.40;;;;;;4985215;28;20058;-95
2023/12/10 11:00:30;;;;;;;11.85;3.55;;;9.60;92.80;;;;;;4990246;28;20264;-93
2023/12/10 11:03:01;;;;;;;11.73;3.60;;;9.60;92.60;;;;;;4968813;28;20041;-93
2023/12/10 11:05:36;;;;;;;15.43;3.35;;;9.60;93.00;;;;;;4997666;28;20046;-94
2023/12/10 11:08:06;;;;;;;13.27;2.08;;;9.60;92.30;;;;;;4989039;28;20033;-93
2023/12/10 11:10:33;;;;;;;20.20;3.97;;;9.60;91.40;;;;;;5001352;28;20018;-94
2023/12/10 11:13:00;;;;;;;10.68;2.92;;;9.70;91.70;;;;;;4985936;28;20027;-94
2023/12/10 11:15:30;;;;;;;8.60;2.35;;;9.80;90.80;;;;;;4967895;28;20050;-94
2023/12/10 11:17:58;;;;;;;15.27;2.72;;;9.90;89.90;;;;;;4983664;28;20101;-94
2023/12/10 11:20:34;;;;;;;11.27;4.03;;;10.10;90.10;;;;;;4993194;28;20030;-94
2023/12/10 11:23:03;;;;;;;16.30;3.53;;;10.10;88.80;;;;;;4994904;28;20022;-93
2023/12/10 11:25:32;;;;;;;23.08;3.95;;;10.20;88.40;;;;;;4987748;28;20035;-92
2023/12/10 11:28:04;;;;;;;16.23;2.75;;;10.20;87.70;;;;;;4991372;28;20153;-93
2023/12/10 11:30:30;;;;;;;15.68;3.55;;;10.20;89.30;;;;;;4984394;28;20046;-93
2023/12/10 11:32:55;;;;;;;14.40;2.85;;;10.20;87.50;;;;;;4965526;28;20497;-93
2023/12/10 11:35:21;;;;;;;15.45;3.42;;;10.30;88.00;;;;;;4986706;28;20054;-93
2023/12/10 11:37:51;;;;;;;9.32;2.67;;;10.20;87.30;;;;;;4986343;28;20033;-92
2023/12/10 11:40:17;;;;;;;10.27;3.17;;;10.30;87.30;;;;;;4986070;28;20121;-92
2023/12/10 11:42:43;;;;;;;10.90;3.20;;;10.20;87.00;;;;;;4966355;28;20505;-94
2023/12/10 11:45:09;;;;;;;12.13;2.78;;;10.20;88.10;;;;;;4980013;28;20493;-94
2023/12/10 11:47:35;;;;;;;10.77;2.85;;;10.20;87.00;;;;;;4945222;29;20020;-93
2023/12/10 11:50:04;;;;;;;22.73;5.28;;;10.10;87.50;;;;;;4965599;28;20089;-92
2023/12/10 11:52:32;;;;;;;13.27;3.03;;;10.10;87.60;;;;;;4982796;28;20022;-93
2023/12/10 11:54:57;;;;;;;11.27;3.20;;;10.10;86.90;;;;;;5001009;28;20026;-93
2023/12/10 11:57:23;;;;;;;8.95;2.63;;;10.10;88.20;;;;;;4968267;28;20038;-91
2023/12/10 11:59:50;;;;;;;12.43;2.58;;;10.10;87.30;;;;;;4965979;28;20054;-92
2023/12/10 12:02:17;;;;;;;14.73;2.40;;;10.10;86.90;;;;;;4966594;28;20026;-93
2023/12/10 12:04:52;;;;;;;13.68;3.20;;;10.10;87.80;;;;;;4987715;28;20150;-93
2023/12/10 12:07:40;;;;;;;9.50;2.25;;;10.00;87.30;;;;;;4986374;28;20520;-94
2023/12/10 12:10:07;;;;;;;12.43;3.35;;;10.10;88.50;;;;;;4996645;28;20102;-93
2023/12/10 12:12:39;;;;;;;14.07;3.45;;;10.10;87.60;;;;;;4988895;28;20045;-92
2023/12/10 12:15:06;;;;;;;13.07;2.65;;;10.10;86.60;;;;;;4967484;28;20034;-93
2023/12/10 12:17:32;;;;;;;11.85;2.53;;;10.00;88.50;;;;;;4985934;28;20038;-94
2023/12/10 12:20:27;;;;;;;14.02;4.00;;;10.00;87.80;;;;;;4981908;28;20062;-93
2023/12/10 12:22:56;;;;;;;11.07;2.53;;;10.00;88.40;;;;;;4987794;28;20129;-93
2023/12/10 12:25:24;;;;;;;18.05;5.25;;;10.00;88.40;;;;;;5004449;28;20131;-93
2023/12/10 12:27:53;;;;;;;16.85;2.97;;;9.90;88.80;;;;;;5004574;28;20057;-92
2023/12/10 12:30:19;;;;;;;13.93;2.28;;;9.90;88.10;;;;;;4984966;28;20495;-93
2023/12/10 12:32:48;;;;;;;14.20;3.08;;;9.90;88.20;;;;;;4986884;28;20054;-91
2023/12/10 12:35:17;;;;;;;13.13;2.53;;;10.00;86.90;;;;;;4986343;28;20058;-92
2023/12/10 12:37:43;;;;;;;11.43;3.38;;;9.90;88.60;;;;;;4986402;28;20119;-92
2023/12/10 12:40:10;;;;;;;11.70;1.75;;;9.90;86.70;;;;;;4988074;28;20031;-94
2023/12/10 12:42:36;;;;;;;8.82;2.08;;;10.00;86.70;;;;;;4968292;28;20042;-93
2023/12/10 12:45:03;;;;;;;10.52;3.15;;;10.00;87.10;;;;;;4968131;28;20027;-92
2023/12/10 12:47:29;;;;;;;7.28;2.45;;;10.00;87.60;;;;;;4983796;28;20034;-92